Terminal Aerodrome Forecast
Issued by NWS

Home | Current Version | Previous Version | Text Only | Print | Product List | Glossary On
Versions: 1 2 3 4 5 6 7 8 9 10 11 12 13 14 15 16 17 18 19 20 21 22 23 24 25 26 27 28
998
FTUS43 KLSX 211139
TAFUIN
TAF
KUIN 211139Z 2112/2212 35012G20KT P6SM SCT015 OVC140
     FM212100 03013KT P6SM BKN200
     FM220800 05011KT P6SM OVC020
     FM221000 05010KT P6SM -FZRA OVC015=

USA.gov is the U.S. government's official web portal to all federal, state and local government web resources and services.